createdAt,value
2022-11-16T00:04:22.947Z,11.13
2022-11-16T00:09:29.752Z,12.27
2022-11-16T00:14:34.874Z,12.50
2022-11-16T00:19:38.113Z,11.30
2022-11-16T00:24:42.456Z,11.23
2022-11-16T00:29:45.537Z,11.10
2022-11-16T00:34:48.527Z,11.90
2022-11-16T00:39:52.820Z,11.70
2022-11-16T00:44:56.096Z,11.07
2022-11-16T00:49:59.398Z,10.93
2022-11-16T00:55:05.527Z,11.63
2022-11-16T01:06:09.581Z,11.50
2022-11-16T01:11:39.929Z,11.37
2022-11-16T01:16:43.361Z,12.30
2022-11-16T01:21:46.728Z,12.73
2022-11-16T01:26:51.587Z,11.90
2022-11-16T01:31:55.049Z,11.67
2022-11-16T01:36:58.666Z,12.53
2022-11-16T01:42:07.405Z,13.27
2022-11-16T01:47:45.949Z,13.60
2022-11-16T01:53:01.434Z,12.50
2022-11-16T01:58:14.394Z,11.97
2022-11-16T02:03:19.367Z,12.57
2022-11-16T02:09:04.572Z,12.03
2022-11-16T02:14:34.947Z,12.73
2022-11-16T02:20:24.269Z,12.50
2022-11-16T02:25:56.439Z,13.63
2022-11-16T02:31:08.783Z,10.93
2022-11-16T02:36:15.855Z,10.97
2022-11-16T02:41:53.740Z,11.33
2022-11-16T02:47:06.373Z,7.37
2022-11-16T02:52:12.440Z,7.27
2022-11-16T02:57:41.961Z,6.57
2022-11-16T03:02:57.660Z,8.17
2022-11-16T03:08:18.397Z,7.47
2022-11-16T03:13:39.360Z,9.70
2022-11-16T03:18:47.092Z,8.80
2022-11-16T03:23:50.749Z,9.03
2022-11-16T03:29:02.870Z,9.67
2022-11-16T03:34:13.592Z,10.27
2022-11-16T03:39:20.140Z,9.30
2022-11-16T03:44:23.769Z,9.40
2022-11-16T03:49:31.185Z,9.33
2022-11-16T03:54:34.725Z,8.30
2022-11-16T03:59:38.012Z,7.43
2022-11-16T04:05:00.562Z,7.00
2022-11-16T04:10:21.342Z,7.07
2022-11-16T04:15:42.292Z,7.00
2022-11-16T04:21:04.491Z,8.27
2022-11-16T04:26:09.695Z,10.07
2022-11-16T04:31:30.834Z,10.90
2022-11-16T04:36:57.780Z,11.13
2022-11-16T04:42:19.806Z,12.77
2022-11-16T04:47:26.213Z,12.13
2022-11-16T04:52:30.674Z,12.10
2022-11-16T04:57:34.591Z,12.00
2022-11-16T05:02:39.199Z,11.83
2022-11-16T05:07:44.118Z,10.33
2022-11-16T05:12:53.245Z,10.37
2022-11-16T05:17:58.055Z,8.30
2022-11-16T05:23:04.173Z,8.97
2022-11-16T05:28:15.253Z,8.87
2022-11-16T05:33:24.314Z,8.47
2022-11-16T05:38:29.504Z,8.07
2022-11-16T05:43:35.401Z,8.73
2022-11-16T05:48:48.395Z,7.60
2022-11-16T05:53:55.988Z,7.10
2022-11-16T05:59:00.636Z,6.40
2022-11-16T06:04:04.055Z,5.93
2022-11-16T06:09:12.674Z,6.10
2022-11-16T06:14:16.231Z,5.97
2022-11-16T06:19:20.027Z,5.40
2022-11-16T06:24:25.130Z,5.20
2022-11-16T06:29:28.738Z,4.83
2022-11-16T06:34:33.091Z,4.53
2022-11-16T06:39:37.786Z,4.03
2022-11-16T06:44:40.898Z,5.27
2022-11-16T06:49:47.159Z,3.87
2022-11-16T06:54:57.841Z,4.47
2022-11-16T07:00:01.256Z,3.90
2022-11-16T07:05:10.952Z,4.23
2022-11-16T07:10:17.414Z,4.20
2022-11-16T07:15:30.699Z,3.63
2022-11-16T07:20:46.931Z,3.67
2022-11-16T07:25:52.177Z,3.50
2022-11-16T07:31:08.948Z,3.47
2022-11-16T07:36:14.831Z,3.30
2022-11-16T07:41:20.564Z,3.43
2022-11-16T07:46:47.436Z,3.90
2022-11-16T07:51:52.333Z,4.00
2022-11-16T07:57:22.780Z,4.60
2022-11-16T08:02:27.691Z,4.50
2022-11-16T08:07:34.440Z,4.77
2022-11-16T08:12:39.195Z,4.30
2022-11-16T08:17:43.256Z,5.87
2022-11-16T08:22:49.675Z,4.10
2022-11-16T08:27:54.490Z,4.17
2022-11-16T08:32:59.292Z,4.53
2022-11-16T08:38:03.088Z,4.00
2022-11-16T08:43:08.369Z,5.43
2022-11-16T08:48:11.749Z,4.17
2022-11-16T08:53:15.570Z,3.90
2022-11-16T08:58:21.194Z,4.77
2022-11-16T09:03:24.652Z,3.53
2022-11-16T09:08:27.886Z,3.57
2022-11-16T09:13:32.446Z,4.27
2022-11-16T09:18:36.925Z,3.67
2022-11-16T09:23:40.223Z,3.50
2022-11-16T09:28:44.612Z,2.90
2022-11-16T09:33:47.966Z,3.70
2022-11-16T09:44:29.069Z,2.80
2022-11-16T09:49:36.722Z,3.07
2022-11-16T09:54:43.807Z,2.73
2022-11-16T09:59:51.470Z,2.90
2022-11-16T10:05:00.632Z,3.27
2022-11-16T10:10:03.653Z,3.13
2022-11-16T10:15:35.302Z,2.33
2022-11-16T10:21:10.827Z,2.30
2022-11-16T10:26:26.405Z,2.67
2022-11-16T10:31:45.180Z,2.07
2022-11-16T10:36:48.498Z,1.90
2022-11-16T10:41:52.195Z,1.97
2022-11-16T10:47:05.046Z,1.97
2022-11-16T10:52:08.483Z,2.00
2022-11-16T10:57:14.203Z,2.30
2022-11-16T11:02:34.889Z,1.97
2022-11-16T11:07:40.175Z,1.80
2022-11-16T11:13:03.197Z,2.10
2022-11-16T11:18:28.368Z,1.93
2022-11-16T11:23:31.799Z,2.07
2022-11-16T11:28:37.883Z,2.60
2022-11-16T11:33:50.906Z,2.07
2022-11-16T11:39:00.375Z,2.27
2022-11-16T11:44:04.559Z,2.10
2022-11-16T11:49:16.322Z,2.30
2022-11-16T11:54:25.882Z,1.90
2022-11-16T11:59:29.063Z,2.13
2022-11-16T12:05:08.138Z,2.43
2022-11-16T12:10:22.669Z,1.80
2022-11-16T12:15:45.718Z,1.63
2022-11-16T12:21:01.353Z,1.67
2022-11-16T12:26:12.614Z,2.40
2022-11-16T12:31:35.881Z,1.77
2022-11-16T12:36:49.251Z,1.90
2022-11-16T12:42:10.520Z,2.00
2022-11-16T12:47:25.521Z,1.53
2022-11-16T12:52:56.533Z,1.93
2022-11-16T12:58:12.238Z,2.23
2022-11-16T13:03:21.717Z,1.60
2022-11-16T13:08:37.556Z,1.93
2022-11-16T13:13:49.652Z,1.70
2022-11-16T13:18:57.249Z,1.60
2022-11-16T13:24:14.833Z,1.70
2022-11-16T13:29:30.328Z,1.87
2022-11-16T13:34:35.584Z,1.90
2022-11-16T13:40:21.550Z,1.57
2022-11-16T13:45:25.189Z,1.50
2022-11-16T13:50:37.669Z,1.90
2022-11-16T13:55:46.317Z,1.57
2022-11-16T14:00:59.012Z,1.70
2022-11-16T14:06:02.636Z,1.80
2022-11-16T14:11:29.085Z,1.60
2022-11-16T14:16:45.116Z,1.90
2022-11-16T14:21:54.148Z,1.90
2022-11-16T14:27:15.689Z,2.17
2022-11-16T14:32:23.326Z,2.20
2022-11-16T14:37:33.665Z,2.23
2022-11-16T14:43:10.008Z,2.10
2022-11-16T14:48:17.375Z,1.90
2022-11-16T14:53:21.203Z,1.73
2022-11-16T14:58:25.799Z,2.27
2022-11-16T15:03:34.870Z,1.70
2022-11-16T15:08:44.699Z,1.50
2022-11-16T15:13:50.002Z,1.83
2022-11-16T15:19:00.693Z,2.13
2022-11-16T15:29:28.918Z,1.73
2022-11-16T15:34:32.595Z,1.87
2022-11-16T15:39:37.794Z,1.53
2022-11-16T15:44:43.782Z,2.57
2022-11-16T15:49:53.195Z,1.80
2022-11-16T15:55:04.918Z,1.70
2022-11-16T16:00:23.533Z,1.90
2022-11-16T16:05:35.210Z,2.43
2022-11-16T16:10:38.368Z,2.10
2022-11-16T16:15:42.965Z,1.47
2022-11-16T16:20:49.415Z,1.97
2022-11-16T16:25:55.748Z,1.83
2022-11-16T16:31:00.231Z,1.77
2022-11-16T16:36:03.498Z,2.17
2022-11-16T16:41:07.753Z,1.47
2022-11-16T16:46:12.943Z,1.77
2022-11-16T16:51:16.112Z,1.70
2022-11-16T16:56:20.038Z,2.00
2022-11-16T17:01:24.591Z,1.77
2022-11-16T17:06:27.701Z,2.07
2022-11-16T17:11:34.185Z,1.70
2022-11-16T17:16:38.980Z,2.33
2022-11-16T17:21:42.095Z,2.10
2022-11-16T17:26:48.430Z,2.70
2022-11-16T17:31:53.389Z,2.87
2022-11-16T17:36:56.952Z,3.23
2022-11-16T17:42:00.153Z,3.00
2022-11-16T17:47:04.735Z,2.57
2022-11-16T17:52:07.704Z,2.40
2022-11-16T17:57:11.019Z,3.03
2022-11-16T18:02:15.419Z,2.40
2022-11-16T18:07:18.542Z,3.10
2022-11-16T18:12:21.781Z,3.27
2022-11-16T18:17:26.417Z,4.20
2022-11-16T18:22:29.630Z,3.73
2022-11-16T18:27:32.756Z,2.93
2022-11-16T18:32:37.270Z,2.60
2022-11-16T18:37:40.485Z,2.50
2022-11-16T18:42:43.489Z,2.40
2022-11-16T18:47:47.946Z,2.87
2022-11-16T18:52:51.357Z,2.73
2022-11-16T18:57:54.442Z,2.93
2022-11-16T19:02:58.850Z,3.37
2022-11-16T19:08:01.876Z,2.10
2022-11-16T19:13:06.119Z,2.10
2022-11-16T19:18:23.138Z,2.77
2022-11-16T19:23:26.354Z,3.80
2022-11-16T19:28:29.863Z,3.80
2022-11-16T19:33:34.485Z,3.60
2022-11-16T19:38:38.208Z,4.33
2022-11-16T19:43:41.687Z,5.20
2022-11-16T19:48:47.224Z,4.20
2022-11-16T19:53:50.389Z,3.77
2022-11-16T19:58:53.910Z,3.60
2022-11-16T20:03:59.853Z,3.20
2022-11-16T20:09:08.734Z,3.00
2022-11-16T20:14:13.749Z,2.53
2022-11-16T20:19:20.606Z,2.50
2022-11-16T20:24:23.683Z,1.90
2022-11-16T20:29:26.856Z,2.17
2022-11-16T20:34:31.247Z,2.13
2022-11-16T20:39:34.410Z,2.03
2022-11-16T20:44:37.436Z,2.30
2022-11-16T20:49:41.962Z,1.80
2022-11-16T20:54:45.345Z,2.00
2022-11-16T20:59:48.454Z,2.43
2022-11-16T21:04:58.911Z,2.57
2022-11-16T21:10:21.384Z,3.07
2022-11-16T21:15:24.416Z,1.80
2022-11-16T21:20:28.938Z,2.40
2022-11-16T21:25:32.035Z,1.87
2022-11-16T21:30:35.089Z,1.90
2022-11-16T21:35:41.615Z,2.30
2022-11-16T21:40:45.334Z,2.20
2022-11-16T21:45:49.543Z,2.57
2022-11-16T21:51:02.467Z,2.30
2022-11-16T21:56:07.213Z,2.70
2022-11-16T22:01:11.690Z,2.93
2022-11-16T22:06:34.931Z,2.93
2022-11-16T22:11:38.235Z,3.03
2022-11-16T22:16:41.346Z,2.40
2022-11-16T22:21:45.896Z,2.27
2022-11-16T22:26:49.181Z,2.07
2022-11-16T22:31:52.233Z,2.07
2022-11-16T22:36:56.669Z,2.90
2022-11-16T22:41:59.983Z,1.70
2022-11-16T22:47:03.041Z,2.07
2022-11-16T22:52:07.524Z,1.90
2022-11-16T22:57:10.713Z,1.60
2022-11-16T23:02:13.846Z,2.10
2022-11-16T23:07:18.360Z,1.90
2022-11-16T23:12:38.916Z,2.03
2022-11-16T23:17:41.981Z,2.13
2022-11-16T23:23:03.707Z,1.40
2022-11-16T23:28:08.906Z,1.77
2022-11-16T23:33:12.528Z,1.60
2022-11-16T23:38:17.373Z,1.67
2022-11-16T23:43:37.953Z,2.67
2022-11-16T23:48:41.466Z,1.73
2022-11-16T23:53:46.042Z,2.07
2022-11-16T23:58:49.605Z,1.80
